sensor_id;sensor_type;location;lat;lon;timestamp;temperature;humidity
28552;DHT22;15752;49.560;8.708;2023-06-26T21:27:24;26.20;53.60
28552;DHT22;15752;49.560;8.708;2023-06-26T21:29:52;26.20;53.40
28552;DHT22;15752;49.560;8.708;2023-06-26T21:32:21;26.10;53.20
28552;DHT22;15752;49.560;8.708;2023-06-26T21:34:49;26.10;53.20
28552;DHT22;15752;49.560;8.708;2023-06-26T21:57:43;25.80;53.50
28552;DHT22;15752;49.560;8.708;2023-06-26T22:00:12;25.80;53.30
28552;DHT22;15752;49.560;8.708;2023-06-26T22:02:42;25.70;53.30
28552;DHT22;15752;49.560;8.708;2023-06-26T22:05:13;25.70;53.40
28552;DHT22;15752;49.560;8.708;2023-06-26T22:07:43;25.70;54.20
28552;DHT22;15752;49.560;8.708;2023-06-26T22:10:23;25.60;53.60
28552;DHT22;15752;49.560;8.708;2023-06-26T22:12:53;25.60;53.70
28552;DHT22;15752;49.560;8.708;2023-06-26T22:15:22;25.60;53.80
28552;DHT22;15752;49.560;8.708;2023-06-26T22:17:56;25.60;54.20
28552;DHT22;15752;49.560;8.708;2023-06-26T22:20:25;25.60;54.50
28552;DHT22;15752;49.560;8.708;2023-06-26T22:22:55;25.60;54.30
28552;DHT22;15752;49.560;8.708;2023-06-26T22:25:25;25.50;54.40
28552;DHT22;15752;49.560;8.708;2023-06-26T22:27:55;25.50;54.10
28552;DHT22;15752;49.560;8.708;2023-06-26T22:30:24;25.50;54.30
28552;DHT22;15752;49.560;8.708;2023-06-26T22:32:53;25.50;54.30
28552;DHT22;15752;49.560;8.708;2023-06-26T22:35:22;25.40;54.60
28552;DHT22;15752;49.560;8.708;2023-06-26T22:37:51;25.40;54.80
28552;DHT22;15752;49.560;8.708;2023-06-26T22:40:20;25.40;54.50
28552;DHT22;15752;49.560;8.708;2023-06-26T22:42:49;25.40;54.50
28552;DHT22;15752;49.560;8.708;2023-06-26T22:45:19;25.30;54.50
28552;DHT22;15752;49.560;8.708;2023-06-26T22:47:48;25.30;54.50
28552;DHT22;15752;49.560;8.708;2023-06-26T22:50:17;25.30;54.30
28552;DHT22;15752;49.560;8.708;2023-06-26T22:52:45;25.30;54.50
28552;DHT22;15752;49.560;8.708;2023-06-26T22:55:14;25.20;54.30
28552;DHT22;15752;49.560;8.708;2023-06-26T22:57:44;25.20;54.50
28552;DHT22;15752;49.560;8.708;2023-06-26T23:00:13;25.20;54.80
28552;DHT22;15752;49.560;8.708;2023-06-26T23:02:44;25.20;54.70
28552;DHT22;15752;49.560;8.708;2023-06-26T23:05:14;25.10;55.10
28552;DHT22;15752;49.560;8.708;2023-06-26T23:07:50;25.10;55.10
28552;DHT22;15752;49.560;8.708;2023-06-26T23:10:19;25.10;54.60
28552;DHT22;15752;49.560;8.708;2023-06-26T23:12:49;25.10;54.90
28552;DHT22;15752;49.560;8.708;2023-06-26T23:15:21;25.10;55.00
28552;DHT22;15752;49.560;8.708;2023-06-26T23:17:52;25.00;54.90
28552;DHT22;15752;49.560;8.708;2023-06-26T23:20:21;25.00;54.70
28552;DHT22;15752;49.560;8.708;2023-06-26T23:22:50;25.00;54.90
28552;DHT22;15752;49.560;8.708;2023-06-26T23:25:19;24.90;55.00
28552;DHT22;15752;49.560;8.708;2023-06-26T23:28:01;24.90;55.50
28552;DHT22;15752;49.560;8.708;2023-06-26T23:30:30;24.90;55.60
28552;DHT22;15752;49.560;8.708;2023-06-26T23:33:03;24.80;55.50
28552;DHT22;15752;49.560;8.708;2023-06-26T23:35:33;24.80;55.70
28552;DHT22;15752;49.560;8.708;2023-06-26T23:38:01;24.80;55.30
28552;DHT22;15752;49.560;8.708;2023-06-26T23:40:30;24.70;55.30
28552;DHT22;15752;49.560;8.708;2023-06-26T23:43:00;24.70;55.60
28552;DHT22;15752;49.560;8.708;2023-06-26T23:45:29;24.70;55.80
28552;DHT22;15752;49.560;8.708;2023-06-26T23:48:04;24.60;55.90
28552;DHT22;15752;49.560;8.708;2023-06-26T23:50:33;24.60;56.10
28552;DHT22;15752;49.560;8.708;2023-06-26T23:53:01;24.60;56.10
28552;DHT22;15752;49.560;8.708;2023-06-26T23:55:30;24.50;55.80
28552;DHT22;15752;49.560;8.708;2023-06-26T23:57:59;24.50;56.00
